sensor_id;sensor_type;location;lat;lon;timestamp;P1;durP1;ratioP1;P2;durP2;ratioP2
2416;SDS011;1219;48.736;9.330;2022-08-01T00:00:29;2.77;;;2.50;;
2416;SDS011;1219;48.736;9.330;2022-08-01T00:02:55;2.50;;;2.30;;
2416;SDS011;1219;48.736;9.330;2022-08-01T00:05:21;2.43;;;2.23;;
2416;SDS011;1219;48.736;9.330;2022-08-01T00:07:47;2.90;;;2.70;;
2416;SDS011;1219;48.736;9.330;2022-08-01T00:10:14;2.80;;;2.60;;
2416;SDS011;1219;48.736;9.330;2022-08-01T00:12:40;4.87;;;2.93;;
2416;SDS011;1219;48.736;9.330;2022-08-01T00:15:07;3.20;;;2.30;;
2416;SDS011;1219;48.736;9.330;2022-08-01T00:17:33;3.10;;;2.90;;
2416;SDS011;1219;48.736;9.330;2022-08-01T00:19:59;2.70;;;2.50;;
2416;SDS011;1219;48.736;9.330;2022-08-01T00:22:27;2.70;;;2.50;;
2416;SDS011;1219;48.736;9.330;2022-08-01T00:24:53;6.83;;;2.93;;
2416;SDS011;1219;48.736;9.330;2022-08-01T00:27:19;2.80;;;2.60;;
2416;SDS011;1219;48.736;9.330;2022-08-01T00:29:45;3.00;;;2.50;;
2416;SDS011;1219;48.736;9.330;2022-08-01T00:32:11;2.83;;;2.63;;
2416;SDS011;1219;48.736;9.330;2022-08-01T00:34:37;3.13;;;2.83;;
2416;SDS011;1219;48.736;9.330;2022-08-01T00:37:03;3.17;;;2.87;;
2416;SDS011;1219;48.736;9.330;2022-08-01T00:39:29;2.80;;;2.60;;
2416;SDS011;1219;48.736;9.330;2022-08-01T00:41:55;3.37;;;3.07;;
2416;SDS011;1219;48.736;9.330;2022-08-01T00:44:21;2.80;;;2.60;;
2416;SDS011;1219;48.736;9.330;2022-08-01T00:46:46;2.80;;;2.60;;
2416;SDS011;1219;48.736;9.330;2022-08-01T00:49:12;2.50;;;2.30;;
2416;SDS011;1219;48.736;9.330;2022-08-01T00:51:38;3.13;;;2.90;;
2416;SDS011;1219;48.736;9.330;2022-08-01T00:54:04;3.10;;;2.87;;
2416;SDS011;1219;48.736;9.330;2022-08-01T00:56:31;4.00;;;3.50;;
2416;SDS011;1219;48.736;9.330;2022-08-01T00:58:56;2.97;;;2.67;;
2416;SDS011;1219;48.736;9.330;2022-08-01T01:01:22;2.50;;;2.40;;
2416;SDS011;1219;48.736;9.330;2022-08-01T01:03:49;3.23;;;3.03;;
2416;SDS011;1219;48.736;9.330;2022-08-01T01:11:29;3.13;;;2.93;;
2416;SDS011;1219;48.736;9.330;2022-08-01T01:14:00;3.00;;;2.70;;
2416;SDS011;1219;48.736;9.330;2022-08-01T01:16:27;3.17;;;2.97;;
2416;SDS011;1219;48.736;9.330;2022-08-01T01:18:55;3.00;;;2.80;;
2416;SDS011;1219;48.736;9.330;2022-08-01T01:24:11;4.00;;;3.73;;
2416;SDS011;1219;48.736;9.330;2022-08-01T01:26:49;5.67;;;3.00;;
2416;SDS011;1219;48.736;9.330;2022-08-01T01:31:57;4.03;;;2.77;;
2416;SDS011;1219;48.736;9.330;2022-08-01T01:34:24;3.13;;;2.80;;
2416;SDS011;1219;48.736;9.330;2022-08-01T01:36:52;3.60;;;3.30;;
2416;SDS011;1219;48.736;9.330;2022-08-01T01:39:20;2.90;;;2.70;;
2416;SDS011;1219;48.736;9.330;2022-08-01T01:41:47;4.63;;;3.00;;
2416;SDS011;1219;48.736;9.330;2022-08-01T01:44:13;3.00;;;2.80;;
2416;SDS011;1219;48.736;9.330;2022-08-01T01:46:40;2.90;;;2.70;;
2416;SDS011;1219;48.736;9.330;2022-08-01T01:49:07;3.43;;;2.80;;
2416;SDS011;1219;48.736;9.330;2022-08-01T01:51:35;3.50;;;3.23;;
2416;SDS011;1219;48.736;9.330;2022-08-01T01:54:03;3.77;;;3.47;;
2416;SDS011;1219;48.736;9.330;2022-08-01T01:56:30;4.47;;;3.17;;
2416;SDS011;1219;48.736;9.330;2022-08-01T01:58:58;4.10;;;3.20;;
2416;SDS011;1219;48.736;9.330;2022-08-01T02:01:27;3.23;;;2.93;;
2416;SDS011;1219;48.736;9.330;2022-08-01T02:03:54;6.60;;;3.50;;
2416;SDS011;1219;48.736;9.330;2022-08-01T02:06:21;3.13;;;2.93;;
2416;SDS011;1219;48.736;9.330;2022-08-01T02:08:48;3.80;;;3.23;;
2416;SDS011;1219;48.736;9.330;2022-08-01T02:11:14;3.37;;;3.17;;
2416;SDS011;1219;48.736;9.330;2022-08-01T02:13:43;4.00;;;3.80;;
2416;SDS011;1219;48.736;9.330;2022-08-01T02:16:10;3.07;;;2.87;;
2416;SDS011;1219;48.736;9.330;2022-08-01T02:18:36;3.67;;;3.37;;
2416;SDS011;1219;48.736;9.330;2022-08-01T02:21:03;3.00;;;2.80;;
2416;SDS011;1219;48.736;9.330;2022-08-01T02:23:32;3.20;;;3.00;;
2416;SDS011;1219;48.736;9.330;2022-08-01T02:26:00;3.50;;;3.30;;
2416;SDS011;1219;48.736;9.330;2022-08-01T02:28:34;3.03;;;2.70;;
2416;SDS011;1219;48.736;9.330;2022-08-01T02:31:02;3.33;;;3.13;;
2416;SDS011;1219;48.736;9.330;2022-08-01T02:33:34;3.30;;;3.10;;
2416;SDS011;1219;48.736;9.330;2022-08-01T02:36:02;3.07;;;2.77;;
2416;SDS011;1219;48.736;9.330;2022-08-01T02:38:30;3.23;;;3.03;;
2416;SDS011;1219;48.736;9.330;2022-08-01T02:40:57;4.10;;;3.70;;
2416;SDS011;1219;48.736;9.330;2022-08-01T02:43:25;3.97;;;3.67;;
2416;SDS011;1219;48.736;9.330;2022-08-01T02:45:56;3.77;;;3.57;;
2416;SDS011;1219;48.736;9.330;2022-08-01T02:48:24;3.90;;;3.70;;
2416;SDS011;1219;48.736;9.330;2022-08-01T02:50:51;3.33;;;3.00;;
2416;SDS011;1219;48.736;9.330;2022-08-01T02:53:19;3.90;;;2.93;;
2416;SDS011;1219;48.736;9.330;2022-08-01T02:55:45;4.33;;;4.00;;
2416;SDS011;1219;48.736;9.330;2022-08-01T02:58:12;3.53;;;3.33;;
2416;SDS011;1219;48.736;9.330;2022-08-01T03:00:39;4.13;;;3.83;;
2416;SDS011;1219;48.736;9.330;2022-08-01T03:03:06;3.80;;;3.40;;
2416;SDS011;1219;48.736;9.330;2022-08-01T03:05:33;4.50;;;4.20;;
2416;SDS011;1219;48.736;9.330;2022-08-01T03:08:00;3.80;;;3.50;;
2416;SDS011;1219;48.736;9.330;2022-08-01T03:10:27;4.03;;;3.73;;
2416;SDS011;1219;48.736;9.330;2022-08-01T03:12:54;3.20;;;3.00;;
2416;SDS011;1219;48.736;9.330;2022-08-01T03:15:20;3.20;;;3.00;;
2416;SDS011;1219;48.736;9.330;2022-08-01T03:17:47;8.10;;;3.40;;
2416;SDS011;1219;48.736;9.330;2022-08-01T03:20:14;4.67;;;4.27;;
2416;SDS011;1219;48.736;9.330;2022-08-01T03:22:40;4.33;;;3.90;;
2416;SDS011;1219;48.736;9.330;2022-08-01T03:25:08;3.60;;;3.30;;
2416;SDS011;1219;48.736;9.330;2022-08-01T03:27:34;7.10;;;3.57;;
2416;SDS011;1219;48.736;9.330;2022-08-01T03:30:02;3.80;;;3.60;;
2416;SDS011;1219;48.736;9.330;2022-08-01T03:32:29;4.33;;;4.03;;
2416;SDS011;1219;48.736;9.330;2022-08-01T03:34:55;4.00;;;3.70;;
2416;SDS011;1219;48.736;9.330;2022-08-01T03:37:26;3.77;;;3.47;;
2416;SDS011;1219;48.736;9.330;2022-08-01T03:39:57;3.80;;;3.50;;
2416;SDS011;1219;48.736;9.330;2022-08-01T03:42:25;3.67;;;3.47;;
2416;SDS011;1219;48.736;9.330;2022-08-01T03:44:54;4.20;;;3.40;;
2416;SDS011;1219;48.736;9.330;2022-08-01T03:47:21;4.60;;;4.20;;
2416;SDS011;1219;48.736;9.330;2022-08-01T03:49:47;4.17;;;3.77;;
2416;SDS011;1219;48.736;9.330;2022-08-01T03:52:14;4.10;;;3.70;;
2416;SDS011;1219;48.736;9.330;2022-08-01T03:54:42;3.83;;;3.43;;
2416;SDS011;1219;48.736;9.330;2022-08-01T03:57:09;3.37;;;3.17;;
2416;SDS011;1219;48.736;9.330;2022-08-01T03:59:35;3.77;;;3.47;;
2416;SDS011;1219;48.736;9.330;2022-08-01T04:02:03;3.57;;;3.27;;
2416;SDS011;1219;48.736;9.330;2022-08-01T04:04:29;4.40;;;4.03;;
2416;SDS011;1219;48.736;9.330;2022-08-01T04:06:56;3.83;;;3.50;;
2416;SDS011;1219;48.736;9.330;2022-08-01T04:09:22;4.37;;;3.97;;
2416;SDS011;1219;48.736;9.330;2022-08-01T04:11:48;4.40;;;4.00;;
2416;SDS011;1219;48.736;9.330;2022-08-01T04:14:15;3.77;;;3.47;;
2416;SDS011;1219;48.736;9.330;2022-08-01T04:16:41;4.07;;;3.70;;
2416;SDS011;1219;48.736;9.330;2022-08-01T04:19:07;4.07;;;3.87;;
2416;SDS011;1219;48.736;9.330;2022-08-01T04:21:33;4.47;;;4.07;;
2416;SDS011;1219;48.736;9.330;2022-08-01T04:24:02;4.30;;;4.00;;
2416;SDS011;1219;48.736;9.330;2022-08-01T04:26:30;5.70;;;4.10;;
2416;SDS011;1219;48.736;9.330;2022-08-01T04:28:57;5.83;;;4.27;;
2416;SDS011;1219;48.736;9.330;2022-08-01T04:31:24;4.23;;;3.83;;
2416;SDS011;1219;48.736;9.330;2022-08-01T04:33:51;4.73;;;4.43;;
2416;SDS011;1219;48.736;9.330;2022-08-01T04:36:19;4.43;;;3.93;;
2416;SDS011;1219;48.736;9.330;2022-08-01T04:38:48;4.47;;;4.00;;
2416;SDS011;1219;48.736;9.330;2022-08-01T04:41:15;4.50;;;4.10;;
2416;SDS011;1219;48.736;9.330;2022-08-01T04:43:42;4.00;;;3.70;;
2416;SDS011;1219;48.736;9.330;2022-08-01T04:46:08;3.93;;;3.70;;
2416;SDS011;1219;48.736;9.330;2022-08-01T04:48:36;3.60;;;3.40;;
2416;SDS011;1219;48.736;9.330;2022-08-01T04:51:02;4.10;;;3.80;;
2416;SDS011;1219;48.736;9.330;2022-08-01T04:53:28;4.07;;;3.67;;
2416;SDS011;1219;48.736;9.330;2022-08-01T04:55:57;4.30;;;4.00;;
2416;SDS011;1219;48.736;9.330;2022-08-01T04:58:23;3.47;;;3.27;;
2416;SDS011;1219;48.736;9.330;2022-08-01T05:00:49;4.47;;;4.17;;
2416;SDS011;1219;48.736;9.330;2022-08-01T05:03:15;10.83;;;4.30;;
2416;SDS011;1219;48.736;9.330;2022-08-01T05:05:41;4.07;;;3.80;;
2416;SDS011;1219;48.736;9.330;2022-08-01T05:08:07;3.70;;;3.50;;
2416;SDS011;1219;48.736;9.330;2022-08-01T05:10:33;4.13;;;3.73;;
2416;SDS011;1219;48.736;9.330;2022-08-01T05:12:59;3.67;;;3.47;;
2416;SDS011;1219;48.736;9.330;2022-08-01T05:15:25;3.80;;;2.93;;
2416;SDS011;1219;48.736;9.330;2022-08-01T05:17:51;4.10;;;3.80;;
2416;SDS011;1219;48.736;9.330;2022-08-01T05:20:17;4.13;;;3.83;;
2416;SDS011;1219;48.736;9.330;2022-08-01T05:22:43;4.07;;;3.77;;
2416;SDS011;1219;48.736;9.330;2022-08-01T05:25:09;4.50;;;4.10;;
2416;SDS011;1219;48.736;9.330;2022-08-01T05:27:35;4.20;;;3.80;;
2416;SDS011;1219;48.736;9.330;2022-08-01T05:30:05;6.80;;;3.53;;
2416;SDS011;1219;48.736;9.330;2022-08-01T05:32:31;5.13;;;4.73;;
2416;SDS011;1219;48.736;9.330;2022-08-01T05:34:57;3.50;;;3.20;;
2416;SDS011;1219;48.736;9.330;2022-08-01T05:37:24;4.20;;;3.80;;
2416;SDS011;1219;48.736;9.330;2022-08-01T05:39:50;4.53;;;3.47;;
2416;SDS011;1219;48.736;9.330;2022-08-01T05:42:16;3.80;;;3.50;;
2416;SDS011;1219;48.736;9.330;2022-08-01T05:44:42;4.17;;;3.47;;
2416;SDS011;1219;48.736;9.330;2022-08-01T05:47:08;4.20;;;3.60;;
2416;SDS011;1219;48.736;9.330;2022-08-01T05:49:34;3.97;;;3.57;;
2416;SDS011;1219;48.736;9.330;2022-08-01T05:51:59;3.90;;;3.00;;
2416;SDS011;1219;48.736;9.330;2022-08-01T05:54:26;4.73;;;3.40;;
2416;SDS011;1219;48.736;9.330;2022-08-01T05:56:52;3.77;;;3.40;;
2416;SDS011;1219;48.736;9.330;2022-08-01T05:59:19;4.30;;;4.00;;
2416;SDS011;1219;48.736;9.330;2022-08-01T06:01:45;3.80;;;3.50;;
2416;SDS011;1219;48.736;9.330;2022-08-01T06:04:11;3.70;;;3.50;;
2416;SDS011;1219;48.736;9.330;2022-08-01T06:06:37;4.93;;;3.90;;
2416;SDS011;1219;48.736;9.330;2022-08-01T06:09:03;8.00;;;3.57;;
2416;SDS011;1219;48.736;9.330;2022-08-01T06:11:29;3.40;;;3.20;;
2416;SDS011;1219;48.736;9.330;2022-08-01T06:13:55;3.30;;;3.10;;
2416;SDS011;1219;48.736;9.330;2022-08-01T06:16:21;4.77;;;3.47;;
2416;SDS011;1219;48.736;9.330;2022-08-01T06:18:47;3.90;;;3.57;;
2416;SDS011;1219;48.736;9.330;2022-08-01T06:21:13;3.40;;;3.20;;
2416;SDS011;1219;48.736;9.330;2022-08-01T06:23:39;3.87;;;3.57;;
2416;SDS011;1219;48.736;9.330;2022-08-01T06:26:07;3.33;;;3.13;;
2416;SDS011;1219;48.736;9.330;2022-08-01T06:28:33;3.70;;;3.40;;
2416;SDS011;1219;48.736;9.330;2022-08-01T06:30:59;4.37;;;4.07;;
2416;SDS011;1219;48.736;9.330;2022-08-01T06:33:25;3.90;;;3.60;;
2416;SDS011;1219;48.736;9.330;2022-08-01T06:35:51;3.70;;;3.30;;
2416;SDS011;1219;48.736;9.330;2022-08-01T06:38:17;3.73;;;3.00;;
2416;SDS011;1219;48.736;9.330;2022-08-01T06:40:43;3.77;;;3.47;;
2416;SDS011;1219;48.736;9.330;2022-08-01T06:43:09;3.77;;;3.47;;
2416;SDS011;1219;48.736;9.330;2022-08-01T06:45:36;3.47;;;3.27;;
2416;SDS011;1219;48.736;9.330;2022-08-01T06:48:02;3.37;;;3.10;;
2416;SDS011;1219;48.736;9.330;2022-08-01T06:50:29;3.60;;;3.30;;
2416;SDS011;1219;48.736;9.330;2022-08-01T06:52:55;3.20;;;2.90;;
2416;SDS011;1219;48.736;9.330;2022-08-01T06:55:21;3.43;;;3.10;;
2416;SDS011;1219;48.736;9.330;2022-08-01T06:57:50;3.93;;;3.30;;
2416;SDS011;1219;48.736;9.330;2022-08-01T07:00:17;3.17;;;2.97;;
2416;SDS011;1219;48.736;9.330;2022-08-01T07:02:45;3.63;;;2.50;;
2416;SDS011;1219;48.736;9.330;2022-08-01T07:05:12;4.80;;;2.93;;
2416;SDS011;1219;48.736;9.330;2022-08-01T07:07:38;5.20;;;2.47;;
2416;SDS011;1219;48.736;9.330;2022-08-01T07:10:04;3.20;;;2.60;;
2416;SDS011;1219;48.736;9.330;2022-08-01T07:12:30;3.67;;;3.37;;
2416;SDS011;1219;48.736;9.330;2022-08-01T07:14:58;3.20;;;2.90;;
2416;SDS011;1219;48.736;9.330;2022-08-01T07:17:24;3.67;;;2.80;;
2416;SDS011;1219;48.736;9.330;2022-08-01T07:19:50;3.53;;;2.70;;
2416;SDS011;1219;48.736;9.330;2022-08-01T07:22:15;4.77;;;3.00;;
2416;SDS011;1219;48.736;9.330;2022-08-01T07:24:41;2.97;;;2.67;;
2416;SDS011;1219;48.736;9.330;2022-08-01T07:27:07;2.57;;;2.47;;
2416;SDS011;1219;48.736;9.330;2022-08-01T07:29:33;2.97;;;2.47;;
2416;SDS011;1219;48.736;9.330;2022-08-01T07:31:59;4.07;;;2.53;;
2416;SDS011;1219;48.736;9.330;2022-08-01T07:34:25;1.90;;;1.80;;
2416;SDS011;1219;48.736;9.330;2022-08-01T07:36:52;2.67;;;2.47;;
2416;SDS011;1219;48.736;9.330;2022-08-01T07:39:18;4.33;;;2.60;;
2416;SDS011;1219;48.736;9.330;2022-08-01T07:41:44;1.90;;;1.80;;
2416;SDS011;1219;48.736;9.330;2022-08-01T07:44:10;1.83;;;1.73;;
2416;SDS011;1219;48.736;9.330;2022-08-01T07:46:36;2.30;;;2.07;;
2416;SDS011;1219;48.736;9.330;2022-08-01T07:49:02;4.20;;;2.10;;
2416;SDS011;1219;48.736;9.330;2022-08-01T07:51:28;2.20;;;2.00;;
2416;SDS011;1219;48.736;9.330;2022-08-01T07:53:54;3.63;;;1.83;;
2416;SDS011;1219;48.736;9.330;2022-08-01T07:56:20;1.87;;;1.77;;
2416;SDS011;1219;48.736;9.330;2022-08-01T07:58:48;1.80;;;1.70;;
2416;SDS011;1219;48.736;9.330;2022-08-01T08:01:14;1.83;;;1.73;;
2416;SDS011;1219;48.736;9.330;2022-08-01T08:03:40;2.83;;;2.17;;
2416;SDS011;1219;48.736;9.330;2022-08-01T08:06:06;2.70;;;2.50;;
2416;SDS011;1219;48.736;9.330;2022-08-01T08:08:32;1.80;;;1.70;;
2416;SDS011;1219;48.736;9.330;2022-08-01T08:10:59;2.20;;;1.80;;
2416;SDS011;1219;48.736;9.330;2022-08-01T08:13:25;1.77;;;1.67;;
2416;SDS011;1219;48.736;9.330;2022-08-01T08:15:51;1.90;;;1.80;;
2416;SDS011;1219;48.736;9.330;2022-08-01T08:18:17;2.00;;;1.90;;
2416;SDS011;1219;48.736;9.330;2022-08-01T08:20:43;2.80;;;1.73;;
2416;SDS011;1219;48.736;9.330;2022-08-01T08:23:10;3.63;;;1.90;;
2416;SDS011;1219;48.736;9.330;2022-08-01T08:25:55;2.23;;;2.03;;
2416;SDS011;1219;48.736;9.330;2022-08-01T08:28:20;2.07;;;1.97;;
2416;SDS011;1219;48.736;9.330;2022-08-01T08:30:46;2.17;;;2.07;;
2416;SDS011;1219;48.736;9.330;2022-08-01T08:33:12;2.17;;;1.90;;
2416;SDS011;1219;48.736;9.330;2022-08-01T08:35:39;2.20;;;2.00;;
2416;SDS011;1219;48.736;9.330;2022-08-01T08:38:06;1.80;;;1.70;;
2416;SDS011;1219;48.736;9.330;2022-08-01T08:40:32;2.80;;;1.90;;
2416;SDS011;1219;48.736;9.330;2022-08-01T08:43:00;2.80;;;2.50;;
2416;SDS011;1219;48.736;9.330;2022-08-01T08:45:26;2.70;;;2.50;;
2416;SDS011;1219;48.736;9.330;2022-08-01T08:47:53;2.60;;;2.00;;
2416;SDS011;1219;48.736;9.330;2022-08-01T08:50:20;1.93;;;1.83;;
2416;SDS011;1219;48.736;9.330;2022-08-01T08:52:46;2.20;;;2.00;;
2416;SDS011;1219;48.736;9.330;2022-08-01T08:55:13;4.73;;;2.20;;
2416;SDS011;1219;48.736;9.330;2022-08-01T08:57:41;1.90;;;1.80;;
2416;SDS011;1219;48.736;9.330;2022-08-01T09:00:08;2.33;;;1.97;;
2416;SDS011;1219;48.736;9.330;2022-08-01T09:02:35;3.47;;;2.37;;
2416;SDS011;1219;48.736;9.330;2022-08-01T09:05:01;2.00;;;1.90;;
2416;SDS011;1219;48.736;9.330;2022-08-01T09:07:27;4.13;;;2.17;;
2416;SDS011;1219;48.736;9.330;2022-08-01T09:09:53;2.50;;;2.20;;
2416;SDS011;1219;48.736;9.330;2022-08-01T09:12:19;2.63;;;2.43;;
2416;SDS011;1219;48.736;9.330;2022-08-01T09:14:46;2.47;;;2.27;;
2416;SDS011;1219;48.736;9.330;2022-08-01T09:17:12;2.50;;;2.40;;
2416;SDS011;1219;48.736;9.330;2022-08-01T09:19:39;2.90;;;2.70;;
2416;SDS011;1219;48.736;9.330;2022-08-01T09:22:06;2.97;;;2.77;;
2416;SDS011;1219;48.736;9.330;2022-08-01T09:24:33;2.97;;;2.77;;
2416;SDS011;1219;48.736;9.330;2022-08-01T09:27:00;3.13;;;2.93;;
2416;SDS011;1219;48.736;9.330;2022-08-01T09:29:28;5.00;;;2.80;;
2416;SDS011;1219;48.736;9.330;2022-08-01T09:31:54;3.53;;;3.23;;
2416;SDS011;1219;48.736;9.330;2022-08-01T09:34:30;3.43;;;3.13;;
2416;SDS011;1219;48.736;9.330;2022-08-01T09:36:58;3.53;;;3.23;;
2416;SDS011;1219;48.736;9.330;2022-08-01T09:39:25;5.40;;;3.40;;
2416;SDS011;1219;48.736;9.330;2022-08-01T09:41:56;3.33;;;3.13;;
2416;SDS011;1219;48.736;9.330;2022-08-01T09:44:38;3.40;;;3.17;;
2416;SDS011;1219;48.736;9.330;2022-08-01T09:47:05;3.27;;;2.97;;
2416;SDS011;1219;48.736;9.330;2022-08-01T09:49:32;3.07;;;2.87;;
2416;SDS011;1219;48.736;9.330;2022-08-01T09:51:59;6.43;;;2.97;;
2416;SDS011;1219;48.736;9.330;2022-08-01T09:54:29;4.63;;;3.80;;
2416;SDS011;1219;48.736;9.330;2022-08-01T09:56:57;5.80;;;3.37;;
2416;SDS011;1219;48.736;9.330;2022-08-01T09:59:36;3.47;;;3.17;;
2416;SDS011;1219;48.736;9.330;2022-08-01T10:02:07;3.30;;;3.10;;
2416;SDS011;1219;48.736;9.330;2022-08-01T10:04:33;3.63;;;3.43;;
2416;SDS011;1219;48.736;9.330;2022-08-01T10:07:03;3.33;;;3.13;;
2416;SDS011;1219;48.736;9.330;2022-08-01T10:09:30;3.50;;;3.30;;
2416;SDS011;1219;48.736;9.330;2022-08-01T10:11:58;4.90;;;4.53;;
2416;SDS011;1219;48.736;9.330;2022-08-01T10:14:25;4.83;;;4.10;;
2416;SDS011;1219;48.736;9.330;2022-08-01T10:16:51;4.63;;;4.33;;
2416;SDS011;1219;48.736;9.330;2022-08-01T10:19:18;4.73;;;4.33;;
2416;SDS011;1219;48.736;9.330;2022-08-01T10:21:46;4.77;;;4.47;;
2416;SDS011;1219;48.736;9.330;2022-08-01T10:24:14;5.03;;;4.63;;
2416;SDS011;1219;48.736;9.330;2022-08-01T10:26:41;7.63;;;5.30;;
2416;SDS011;1219;48.736;9.330;2022-08-01T10:29:08;4.67;;;4.37;;
2416;SDS011;1219;48.736;9.330;2022-08-01T10:31:35;5.30;;;4.90;;
2416;SDS011;1219;48.736;9.330;2022-08-01T10:34:02;4.73;;;4.43;;
2416;SDS011;1219;48.736;9.330;2022-08-01T10:36:28;5.13;;;4.83;;
2416;SDS011;1219;48.736;9.330;2022-08-01T10:38:55;4.70;;;4.20;;
2416;SDS011;1219;48.736;9.330;2022-08-01T10:41:21;4.30;;;4.00;;
2416;SDS011;1219;48.736;9.330;2022-08-01T10:43:47;4.20;;;3.80;;
2416;SDS011;1219;48.736;9.330;2022-08-01T10:46:13;4.17;;;3.87;;
2416;SDS011;1219;48.736;9.330;2022-08-01T10:48:45;4.20;;;3.90;;
2416;SDS011;1219;48.736;9.330;2022-08-01T10:51:14;4.47;;;4.17;;
2416;SDS011;1219;48.736;9.330;2022-08-01T10:53:45;4.00;;;3.80;;
2416;SDS011;1219;48.736;9.330;2022-08-01T10:56:11;5.13;;;4.20;;
2416;SDS011;1219;48.736;9.330;2022-08-01T10:58:38;4.17;;;3.87;;
2416;SDS011;1219;48.736;9.330;2022-08-01T11:01:27;4.90;;;3.67;;
2416;SDS011;1219;48.736;9.330;2022-08-01T11:06:23;3.33;;;3.03;;
2416;SDS011;1219;48.736;9.330;2022-08-01T11:08:50;3.67;;;3.47;;
2416;SDS011;1219;48.736;9.330;2022-08-01T11:11:16;3.30;;;2.80;;
2416;SDS011;1219;48.736;9.330;2022-08-01T11:16:27;2.83;;;2.63;;
2416;SDS011;1219;48.736;9.330;2022-08-01T11:18:53;3.17;;;2.97;;
2416;SDS011;1219;48.736;9.330;2022-08-01T11:21:19;3.43;;;3.10;;
2416;SDS011;1219;48.736;9.330;2022-08-01T11:23:49;2.60;;;2.40;;
2416;SDS011;1219;48.736;9.330;2022-08-01T11:26:16;4.23;;;3.07;;
2416;SDS011;1219;48.736;9.330;2022-08-01T11:28:43;2.97;;;2.77;;
2416;SDS011;1219;48.736;9.330;2022-08-01T11:38:42;3.13;;;2.93;;
2416;SDS011;1219;48.736;9.330;2022-08-01T11:41:09;2.60;;;2.40;;
2416;SDS011;1219;48.736;9.330;2022-08-01T11:43:38;2.50;;;2.30;;
2416;SDS011;1219;48.736;9.330;2022-08-01T11:46:20;2.23;;;2.13;;
2416;SDS011;1219;48.736;9.330;2022-08-01T11:52:00;2.47;;;2.27;;
2416;SDS011;1219;48.736;9.330;2022-08-01T11:54:27;2.37;;;2.27;;
2416;SDS011;1219;48.736;9.330;2022-08-01T11:56:57;2.37;;;2.00;;
2416;SDS011;1219;48.736;9.330;2022-08-01T11:59:23;2.43;;;2.33;;
2416;SDS011;1219;48.736;9.330;2022-08-01T12:01:49;2.80;;;2.60;;
2416;SDS011;1219;48.736;9.330;2022-08-01T12:04:15;2.67;;;2.47;;
2416;SDS011;1219;48.736;9.330;2022-08-01T12:06:42;2.60;;;2.50;;
2416;SDS011;1219;48.736;9.330;2022-08-01T12:09:18;3.33;;;2.70;;
2416;SDS011;1219;48.736;9.330;2022-08-01T12:11:44;2.87;;;2.60;;
2416;SDS011;1219;48.736;9.330;2022-08-01T12:14:15;2.63;;;2.50;;
2416;SDS011;1219;48.736;9.330;2022-08-01T12:16:47;2.70;;;2.50;;
2416;SDS011;1219;48.736;9.330;2022-08-01T12:19:23;3.23;;;3.03;;
2416;SDS011;1219;48.736;9.330;2022-08-01T12:22:05;2.60;;;2.40;;
2416;SDS011;1219;48.736;9.330;2022-08-01T12:24:32;2.50;;;2.40;;
2416;SDS011;1219;48.736;9.330;2022-08-01T12:26:58;2.63;;;2.37;;
2416;SDS011;1219;48.736;9.330;2022-08-01T12:29:37;2.80;;;2.00;;
2416;SDS011;1219;48.736;9.330;2022-08-01T12:32:04;3.40;;;2.10;;
2416;SDS011;1219;48.736;9.330;2022-08-01T12:34:30;3.00;;;2.77;;
2416;SDS011;1219;48.736;9.330;2022-08-01T12:36:59;2.30;;;2.20;;
2416;SDS011;1219;48.736;9.330;2022-08-01T12:39:29;2.03;;;1.93;;
2416;SDS011;1219;48.736;9.330;2022-08-01T12:41:55;2.43;;;2.33;;
2416;SDS011;1219;48.736;9.330;2022-08-01T12:44:21;2.30;;;2.20;;
2416;SDS011;1219;48.736;9.330;2022-08-01T12:46:47;1.90;;;1.80;;
2416;SDS011;1219;48.736;9.330;2022-08-01T12:49:13;1.80;;;1.67;;
2416;SDS011;1219;48.736;9.330;2022-08-01T12:51:40;1.77;;;1.67;;
2416;SDS011;1219;48.736;9.330;2022-08-01T12:54:06;1.98;;;1.88;;
2416;SDS011;1219;48.736;9.330;2022-08-01T12:56:35;2.77;;;1.70;;
2416;SDS011;1219;48.736;9.330;2022-08-01T12:59:01;2.13;;;2.03;;
2416;SDS011;1219;48.736;9.330;2022-08-01T13:01:27;1.90;;;1.80;;
2416;SDS011;1219;48.736;9.330;2022-08-01T13:03:58;2.23;;;1.87;;
2416;SDS011;1219;48.736;9.330;2022-08-01T13:06:27;4.23;;;2.70;;
2416;SDS011;1219;48.736;9.330;2022-08-01T13:08:53;2.30;;;2.17;;
2416;SDS011;1219;48.736;9.330;2022-08-01T13:11:19;2.80;;;2.60;;
2416;SDS011;1219;48.736;9.330;2022-08-01T13:13:47;2.53;;;2.33;;
2416;SDS011;1219;48.736;9.330;2022-08-01T13:16:13;2.60;;;2.10;;
2416;SDS011;1219;48.736;9.330;2022-08-01T13:18:40;2.47;;;2.10;;
2416;SDS011;1219;48.736;9.330;2022-08-01T13:21:16;2.63;;;1.87;;
2416;SDS011;1219;48.736;9.330;2022-08-01T13:24:02;3.70;;;1.90;;
2416;SDS011;1219;48.736;9.330;2022-08-01T13:26:41;1.70;;;1.60;;
2416;SDS011;1219;48.736;9.330;2022-08-01T13:29:07;1.88;;;1.77;;
2416;SDS011;1219;48.736;9.330;2022-08-01T13:31:34;2.08;;;1.50;;
2416;SDS011;1219;48.736;9.330;2022-08-01T13:34:01;1.92;;;1.83;;
2416;SDS011;1219;48.736;9.330;2022-08-01T13:36:27;3.00;;;1.65;;
2416;SDS011;1219;48.736;9.330;2022-08-01T13:38:54;1.45;;;1.35;;
2416;SDS011;1219;48.736;9.330;2022-08-01T13:41:39;1.58;;;1.48;;
2416;SDS011;1219;48.736;9.330;2022-08-01T13:44:05;1.95;;;1.85;;
2416;SDS011;1219;48.736;9.330;2022-08-01T13:46:33;1.70;;;1.60;;
2416;SDS011;1219;48.736;9.330;2022-08-01T13:49:00;2.63;;;2.42;;
2416;SDS011;1219;48.736;9.330;2022-08-01T13:51:26;1.67;;;1.58;;
2416;SDS011;1219;48.736;9.330;2022-08-01T13:53:52;3.10;;;1.90;;
2416;SDS011;1219;48.736;9.330;2022-08-01T13:56:18;1.97;;;1.87;;
2416;SDS011;1219;48.736;9.330;2022-08-01T13:58:44;1.73;;;1.63;;
2416;SDS011;1219;48.736;9.330;2022-08-01T14:01:12;2.10;;;2.00;;
2416;SDS011;1219;48.736;9.330;2022-08-01T14:03:38;2.00;;;1.90;;
2416;SDS011;1219;48.736;9.330;2022-08-01T14:06:04;2.33;;;2.13;;
2416;SDS011;1219;48.736;9.330;2022-08-01T14:08:30;1.80;;;1.70;;
2416;SDS011;1219;48.736;9.330;2022-08-01T14:10:56;1.70;;;1.60;;
2416;SDS011;1219;48.736;9.330;2022-08-01T14:13:24;2.78;;;2.00;;
2416;SDS011;1219;48.736;9.330;2022-08-01T14:15:50;2.35;;;1.88;;
2416;SDS011;1219;48.736;9.330;2022-08-01T14:18:16;2.00;;;1.90;;
2416;SDS011;1219;48.736;9.330;2022-08-01T14:20:42;2.17;;;2.07;;
2416;SDS011;1219;48.736;9.330;2022-08-01T14:23:08;1.80;;;1.70;;
2416;SDS011;1219;48.736;9.330;2022-08-01T14:25:38;1.90;;;1.73;;
2416;SDS011;1219;48.736;9.330;2022-08-01T14:28:04;2.30;;;1.83;;
2416;SDS011;1219;48.736;9.330;2022-08-01T14:30:31;2.50;;;1.60;;
2416;SDS011;1219;48.736;9.330;2022-08-01T14:32:57;2.20;;;1.57;;
2416;SDS011;1219;48.736;9.330;2022-08-01T14:35:23;1.93;;;1.33;;
2416;SDS011;1219;48.736;9.330;2022-08-01T14:37:49;1.60;;;1.50;;
2416;SDS011;1219;48.736;9.330;2022-08-01T14:40:15;2.80;;;1.90;;
2416;SDS011;1219;48.736;9.330;2022-08-01T14:42:41;2.60;;;1.70;;
2416;SDS011;1219;48.736;9.330;2022-08-01T14:45:09;2.00;;;1.90;;
2416;SDS011;1219;48.736;9.330;2022-08-01T14:47:36;2.13;;;1.90;;
2416;SDS011;1219;48.736;9.330;2022-08-01T14:50:06;1.77;;;1.67;;
2416;SDS011;1219;48.736;9.330;2022-08-01T14:52:33;1.70;;;1.60;;
2416;SDS011;1219;48.736;9.330;2022-08-01T14:54:59;3.43;;;2.00;;
2416;SDS011;1219;48.736;9.330;2022-08-01T14:57:26;3.30;;;2.00;;
2416;SDS011;1219;48.736;9.330;2022-08-01T14:59:52;2.50;;;2.05;;
2416;SDS011;1219;48.736;9.330;2022-08-01T15:02:18;1.83;;;1.67;;
2416;SDS011;1219;48.736;9.330;2022-08-01T15:04:44;1.97;;;1.70;;
2416;SDS011;1219;48.736;9.330;2022-08-01T15:07:11;1.90;;;1.80;;
2416;SDS011;1219;48.736;9.330;2022-08-01T15:09:37;1.90;;;1.60;;
2416;SDS011;1219;48.736;9.330;2022-08-01T15:12:03;2.27;;;1.87;;
2416;SDS011;1219;48.736;9.330;2022-08-01T15:14:29;1.83;;;1.73;;
2416;SDS011;1219;48.736;9.330;2022-08-01T15:17:23;1.63;;;1.53;;
2416;SDS011;1219;48.736;9.330;2022-08-01T15:19:50;2.43;;;1.80;;
2416;SDS011;1219;48.736;9.330;2022-08-01T15:22:16;1.93;;;1.70;;
2416;SDS011;1219;48.736;9.330;2022-08-01T15:24:43;1.70;;;1.60;;
2416;SDS011;1219;48.736;9.330;2022-08-01T15:27:09;2.70;;;2.20;;
2416;SDS011;1219;48.736;9.330;2022-08-01T15:29:35;2.40;;;2.00;;
2416;SDS011;1219;48.736;9.330;2022-08-01T15:32:05;2.10;;;1.97;;
2416;SDS011;1219;48.736;9.330;2022-08-01T15:34:31;1.80;;;1.70;;
2416;SDS011;1219;48.736;9.330;2022-08-01T15:36:57;2.30;;;2.10;;
2416;SDS011;1219;48.736;9.330;2022-08-01T15:39:23;1.80;;;1.70;;
2416;SDS011;1219;48.736;9.330;2022-08-01T15:41:50;1.67;;;1.57;;